sensor_id;sensor_type;location;lat;lon;timestamp;P1;durP1;ratioP1;P2;durP2;ratioP2
57615;SDS011;43816;52.054;-9.494;2022-11-27T00:00:10;7.78;;;3.45;;
57615;SDS011;43816;52.054;-9.494;2022-11-27T00:00:20;7.55;;;3.50;;
57615;SDS011;43816;52.054;-9.494;2022-11-27T00:00:31;7.27;;;3.37;;
57615;SDS011;43816;52.054;-9.494;2022-11-27T00:00:41;7.73;;;3.57;;
57615;SDS011;43816;52.054;-9.494;2022-11-27T00:00:52;7.85;;;3.58;;
57615;SDS011;43816;52.054;-9.494;2022-11-27T00:01:12;7.60;;;3.70;;
57615;SDS011;43816;52.054;-9.494;2022-11-27T00:01:25;8.40;;;3.85;;
57615;SDS011;43816;52.054;-9.494;2022-11-27T00:01:37;8.80;;;3.92;;
57615;SDS011;43816;52.054;-9.494;2022-11-27T00:01:48;9.07;;;3.70;;
57615;SDS011;43816;52.054;-9.494;2022-11-27T00:01:58;9.33;;;3.40;;
57615;SDS011;43816;52.054;-9.494;2022-11-27T00:02:09;9.20;;;3.40;;
57615;SDS011;43816;52.054;-9.494;2022-11-27T00:02:19;8.25;;;3.35;;
57615;SDS011;43816;52.054;-9.494;2022-11-27T00:02:29;6.63;;;3.37;;
57615;SDS011;43816;52.054;-9.494;2022-11-27T00:02:40;5.93;;;3.30;;
57615;SDS011;43816;52.054;-9.494;2022-11-27T00:02:50;7.63;;;3.50;;
57615;SDS011;43816;52.054;-9.494;2022-11-27T00:03:00;8.33;;;3.50;;
57615;SDS011;43816;52.054;-9.494;2022-11-27T00:03:11;8.67;;;3.50;;
57615;SDS011;43816;52.054;-9.494;2022-11-27T00:03:21;7.57;;;3.30;;
57615;SDS011;43816;52.054;-9.494;2022-11-27T00:03:31;7.57;;;3.43;;
57615;SDS011;43816;52.054;-9.494;2022-11-27T00:03:41;7.67;;;3.47;;
57615;SDS011;43816;52.054;-9.494;2022-11-27T00:03:52;7.35;;;3.45;;
57615;SDS011;43816;52.054;-9.494;2022-11-27T00:04:06;7.82;;;3.35;;
57615;SDS011;43816;52.054;-9.494;2022-11-27T00:04:17;7.60;;;3.40;;
57615;SDS011;43816;52.054;-9.494;2022-11-27T00:04:28;7.70;;;3.47;;
57615;SDS011;43816;52.054;-9.494;2022-11-27T00:04:38;7.53;;;3.60;;
57615;SDS011;43816;52.054;-9.494;2022-11-27T00:04:48;7.73;;;3.50;;
57615;SDS011;43816;52.054;-9.494;2022-11-27T00:04:59;7.60;;;3.42;;
57615;SDS011;43816;52.054;-9.494;2022-11-27T00:05:09;7.37;;;3.30;;
57615;SDS011;43816;52.054;-9.494;2022-11-27T00:05:19;7.77;;;3.60;;
57615;SDS011;43816;52.054;-9.494;2022-11-27T00:05:29;7.27;;;3.40;;
57615;SDS011;43816;52.054;-9.494;2022-11-27T00:05:40;7.28;;;3.47;;
57615;SDS011;43816;52.054;-9.494;2022-11-27T00:05:59;7.47;;;3.47;;
57615;SDS011;43816;52.054;-9.494;2022-11-27T00:06:13;7.65;;;3.35;;
57615;SDS011;43816;52.054;-9.494;2022-11-27T00:06:26;7.38;;;3.28;;
57615;SDS011;43816;52.054;-9.494;2022-11-27T00:06:38;7.78;;;3.40;;
57615;SDS011;43816;52.054;-9.494;2022-11-27T00:06:49;7.75;;;3.70;;
57615;SDS011;43816;52.054;-9.494;2022-11-27T00:06:59;7.30;;;3.63;;
57615;SDS011;43816;52.054;-9.494;2022-11-27T00:07:10;6.83;;;3.57;;
57615;SDS011;43816;52.054;-9.494;2022-11-27T00:07:20;6.53;;;3.13;;
57615;SDS011;43816;52.054;-9.494;2022-11-27T00:07:30;6.65;;;3.20;;
57615;SDS011;43816;52.054;-9.494;2022-11-27T00:07:41;7.70;;;3.33;;
57615;SDS011;43816;52.054;-9.494;2022-11-27T00:07:51;7.53;;;3.30;;
57615;SDS011;43816;52.054;-9.494;2022-11-27T00:08:01;7.13;;;3.20;;
57615;SDS011;43816;52.054;-9.494;2022-11-27T00:08:11;6.80;;;3.20;;
57615;SDS011;43816;52.054;-9.494;2022-11-27T00:08:23;7.07;;;3.17;;
57615;SDS011;43816;52.054;-9.494;2022-11-27T00:08:36;7.18;;;3.04;;
57615;SDS011;43816;52.054;-9.494;2022-11-27T00:08:46;6.87;;;3.20;;
57615;SDS011;43816;52.054;-9.494;2022-11-27T00:09:03;6.88;;;3.42;;
57615;SDS011;43816;52.054;-9.494;2022-11-27T00:09:15;7.15;;;3.47;;
57615;SDS011;43816;52.054;-9.494;2022-11-27T00:09:25;7.30;;;3.30;;
57615;SDS011;43816;52.054;-9.494;2022-11-27T00:09:36;7.68;;;3.28;;
57615;SDS011;43816;52.054;-9.494;2022-11-27T00:09:46;8.07;;;3.23;;
57615;SDS011;43816;52.054;-9.494;2022-11-27T00:09:56;7.73;;;3.30;;
57615;SDS011;43816;52.054;-9.494;2022-11-27T00:10:07;6.95;;;3.30;;
57615;SDS011;43816;52.054;-9.494;2022-11-27T00:10:18;8.13;;;3.30;;
57615;SDS011;43816;52.054;-9.494;2022-11-27T00:10:28;9.17;;;3.47;;
57615;SDS011;43816;52.054;-9.494;2022-11-27T00:10:38;8.77;;;3.40;;
57615;SDS011;43816;52.054;-9.494;2022-11-27T00:10:48;7.30;;;3.47;;
57615;SDS011;43816;52.054;-9.494;2022-11-27T00:11:09;6.80;;;3.50;;
57615;SDS011;43816;52.054;-9.494;2022-11-27T00:11:22;7.00;;;3.60;;
57615;SDS011;43816;52.054;-9.494;2022-11-27T00:11:34;7.38;;;3.40;;
57615;SDS011;43816;52.054;-9.494;2022-11-27T00:11:44;7.03;;;3.37;;
57615;SDS011;43816;52.054;-9.494;2022-11-27T00:11:54;7.53;;;3.33;;
57615;SDS011;43816;52.054;-9.494;2022-11-27T00:12:05;8.10;;;3.50;;
57615;SDS011;43816;52.054;-9.494;2022-11-27T00:12:15;8.40;;;3.70;;
57615;SDS011;43816;52.054;-9.494;2022-11-27T00:12:25;7.55;;;3.65;;
57615;SDS011;43816;52.054;-9.494;2022-11-27T00:12:36;7.80;;;3.57;;
57615;SDS011;43816;52.054;-9.494;2022-11-27T00:12:46;10.50;;;3.47;;
57615;SDS011;43816;52.054;-9.494;2022-11-27T00:12:56;11.13;;;3.40;;
57615;SDS011;43816;52.054;-9.494;2022-11-27T00:13:06;10.13;;;3.50;;
57615;SDS011;43816;52.054;-9.494;2022-11-27T00:13:17;7.43;;;3.60;;
57615;SDS011;43816;52.054;-9.494;2022-11-27T00:13:27;7.07;;;3.63;;
57615;SDS011;43816;52.054;-9.494;2022-11-27T00:13:38;7.10;;;3.50;;
57615;SDS011;43816;52.054;-9.494;2022-11-27T00:13:48;7.47;;;3.40;;
57615;SDS011;43816;52.054;-9.494;2022-11-27T00:14:00;7.68;;;3.47;;
57615;SDS011;43816;52.054;-9.494;2022-11-27T00:14:17;7.00;;;3.33;;
57615;SDS011;43816;52.054;-9.494;2022-11-27T00:14:27;8.03;;;3.27;;
57615;SDS011;43816;52.054;-9.494;2022-11-27T00:14:37;8.18;;;3.22;;
57615;SDS011;43816;52.054;-9.494;2022-11-27T00:14:47;8.10;;;3.37;;
57615;SDS011;43816;52.054;-9.494;2022-11-27T00:14:58;7.73;;;3.30;;
57615;SDS011;43816;52.054;-9.494;2022-11-27T00:15:12;8.18;;;3.35;;
57615;SDS011;43816;52.054;-9.494;2022-11-27T00:15:22;7.28;;;3.35;;
57615;SDS011;43816;52.054;-9.494;2022-11-27T00:15:32;7.43;;;3.40;;
57615;SDS011;43816;52.054;-9.494;2022-11-27T00:15:43;7.17;;;3.20;;
57615;SDS011;43816;52.054;-9.494;2022-11-27T00:15:56;6.85;;;3.15;;
57615;SDS011;43816;52.054;-9.494;2022-11-27T00:16:07;6.90;;;3.20;;
57615;SDS011;43816;52.054;-9.494;2022-11-27T00:16:18;7.55;;;3.17;;
57615;SDS011;43816;52.054;-9.494;2022-11-27T00:16:29;7.65;;;3.22;;
57615;SDS011;43816;52.054;-9.494;2022-11-27T00:16:40;7.97;;;3.33;;
57615;SDS011;43816;52.054;-9.494;2022-11-27T00:16:50;8.45;;;3.65;;
57615;SDS011;43816;52.054;-9.494;2022-11-27T00:17:00;8.40;;;3.57;;
57615;SDS011;43816;52.054;-9.494;2022-11-27T00:17:11;7.95;;;3.50;;
57615;SDS011;43816;52.054;-9.494;2022-11-27T00:17:21;7.90;;;3.33;;
57615;SDS011;43816;52.054;-9.494;2022-11-27T00:17:31;8.43;;;3.40;;
57615;SDS011;43816;52.054;-9.494;2022-11-27T00:17:41;8.27;;;3.30;;
57615;SDS011;43816;52.054;-9.494;2022-11-27T00:17:52;7.97;;;3.30;;
57615;SDS011;43816;52.054;-9.494;2022-11-27T00:18:02;7.67;;;3.33;;
57615;SDS011;43816;52.054;-9.494;2022-11-27T00:18:12;7.68;;;3.40;;
57615;SDS011;43816;52.054;-9.494;2022-11-27T00:18:26;7.85;;;3.35;;
57615;SDS011;43816;52.054;-9.494;2022-11-27T00:18:36;7.37;;;3.30;;
57615;SDS011;43816;52.054;-9.494;2022-11-27T00:18:47;7.35;;;3.40;;
57615;SDS011;43816;52.054;-9.494;2022-11-27T00:18:58;7.88;;;3.35;;
57615;SDS011;43816;52.054;-9.494;2022-11-27T00:19:08;7.93;;;3.40;;
57615;SDS011;43816;52.054;-9.494;2022-11-27T00:19:19;7.43;;;3.17;;
57615;SDS011;43816;52.054;-9.494;2022-11-27T00:19:35;7.13;;;3.30;;
57615;SDS011;43816;52.054;-9.494;2022-11-27T00:19:46;7.43;;;3.47;;
57615;SDS011;43816;52.054;-9.494;2022-11-27T00:19:56;7.63;;;3.58;;
57615;SDS011;43816;52.054;-9.494;2022-11-27T00:20:06;7.87;;;3.47;;
57615;SDS011;43816;52.054;-9.494;2022-11-27T00:20:17;7.78;;;3.40;;
57615;SDS011;43816;52.054;-9.494;2022-11-27T00:20:27;6.97;;;3.33;;
57615;SDS011;43816;52.054;-9.494;2022-11-27T00:20:38;6.57;;;3.27;;
57615;SDS011;43816;52.054;-9.494;2022-11-27T00:20:48;6.53;;;3.20;;
57615;SDS011;43816;52.054;-9.494;2022-11-27T00:21:05;6.77;;;3.17;;
57615;SDS011;43816;52.054;-9.494;2022-11-27T00:21:24;7.65;;;3.30;;
57615;SDS011;43816;52.054;-9.494;2022-11-27T00:21:37;6.80;;;3.28;;
57615;SDS011;43816;52.054;-9.494;2022-11-27T00:21:47;6.57;;;3.23;;
57615;SDS011;43816;52.054;-9.494;2022-11-27T00:21:58;7.40;;;3.33;;
57615;SDS011;43816;52.054;-9.494;2022-11-27T00:22:08;7.53;;;3.58;;
57615;SDS011;43816;52.054;-9.494;2022-11-27T00:22:18;8.47;;;3.60;;
57615;SDS011;43816;52.054;-9.494;2022-11-27T00:22:28;7.60;;;3.43;;
57615;SDS011;43816;52.054;-9.494;2022-11-27T00:22:39;7.53;;;3.35;;
57615;SDS011;43816;52.054;-9.494;2022-11-27T00:22:49;6.97;;;3.53;;
57615;SDS011;43816;52.054;-9.494;2022-11-27T00:22:59;6.57;;;3.57;;
57615;SDS011;43816;52.054;-9.494;2022-11-27T00:23:09;6.25;;;3.38;;
57615;SDS011;43816;52.054;-9.494;2022-11-27T00:23:20;6.37;;;3.13;;
57615;SDS011;43816;52.054;-9.494;2022-11-27T00:23:31;7.23;;;3.20;;
57615;SDS011;43816;52.054;-9.494;2022-11-27T00:23:42;7.25;;;3.22;;
57615;SDS011;43816;52.054;-9.494;2022-11-27T00:23:53;7.10;;;3.28;;
57615;SDS011;43816;52.054;-9.494;2022-11-27T00:24:07;7.32;;;3.63;;
57615;SDS011;43816;52.054;-9.494;2022-11-27T00:24:19;8.45;;;3.70;;
57615;SDS011;43816;52.054;-9.494;2022-11-27T00:24:29;8.95;;;3.63;;
57615;SDS011;43816;52.054;-9.494;2022-11-27T00:24:40;8.83;;;3.50;;
57615;SDS011;43816;52.054;-9.494;2022-11-27T00:24:52;7.57;;;3.15;;
57615;SDS011;43816;52.054;-9.494;2022-11-27T00:25:02;7.05;;;3.15;;
57615;SDS011;43816;52.054;-9.494;2022-11-27T00:25:16;6.85;;;3.03;;
57615;SDS011;43816;52.054;-9.494;2022-11-27T00:25:26;6.73;;;3.20;;
57615;SDS011;43816;52.054;-9.494;2022-11-27T00:25:36;7.18;;;3.17;;
57615;SDS011;43816;52.054;-9.494;2022-11-27T00:25:50;6.83;;;3.30;;
57615;SDS011;43816;52.054;-9.494;2022-11-27T00:26:01;7.68;;;3.40;;
57615;SDS011;43816;52.054;-9.494;2022-11-27T00:26:12;7.80;;;3.40;;
57615;SDS011;43816;52.054;-9.494;2022-11-27T00:26:26;7.25;;;3.28;;
57615;SDS011;43816;52.054;-9.494;2022-11-27T00:26:37;7.20;;;3.28;;
57615;SDS011;43816;52.054;-9.494;2022-11-27T00:26:48;7.57;;;3.25;;
57615;SDS011;43816;52.054;-9.494;2022-11-27T00:26:58;8.30;;;3.30;;
57615;SDS011;43816;52.054;-9.494;2022-11-27T00:27:09;7.67;;;3.23;;
57615;SDS011;43816;52.054;-9.494;2022-11-27T00:27:20;8.40;;;3.35;;
57615;SDS011;43816;52.054;-9.494;2022-11-27T00:27:30;7.70;;;3.20;;
57615;SDS011;43816;52.054;-9.494;2022-11-27T00:27:40;7.80;;;3.20;;
57615;SDS011;43816;52.054;-9.494;2022-11-27T00:27:51;6.43;;;3.10;;
57615;SDS011;43816;52.054;-9.494;2022-11-27T00:28:01;7.05;;;3.20;;
57615;SDS011;43816;52.054;-9.494;2022-11-27T00:28:11;6.97;;;3.20;;
57615;SDS011;43816;52.054;-9.494;2022-11-27T00:28:21;7.40;;;3.20;;
57615;SDS011;43816;52.054;-9.494;2022-11-27T00:28:32;7.00;;;3.05;;
57615;SDS011;43816;52.054;-9.494;2022-11-27T00:28:46;7.90;;;3.17;;
57615;SDS011;43816;52.054;-9.494;2022-11-27T00:28:56;8.70;;;3.40;;
57615;SDS011;43816;52.054;-9.494;2022-11-27T00:29:07;7.60;;;3.30;;
57615;SDS011;43816;52.054;-9.494;2022-11-27T00:29:18;7.07;;;3.20;;
57615;SDS011;43816;52.054;-9.494;2022-11-27T00:29:28;7.65;;;3.30;;
57615;SDS011;43816;52.054;-9.494;2022-11-27T00:29:39;7.40;;;3.23;;
57615;SDS011;43816;52.054;-9.494;2022-11-27T00:29:49;7.43;;;3.17;;
57615;SDS011;43816;52.054;-9.494;2022-11-27T00:29:59;7.38;;;3.33;;
57615;SDS011;43816;52.054;-9.494;2022-11-27T00:30:10;7.77;;;3.30;;
57615;SDS011;43816;52.054;-9.494;2022-11-27T00:30:21;7.68;;;3.28;;
57615;SDS011;43816;52.054;-9.494;2022-11-27T00:30:31;7.55;;;3.25;;
57615;SDS011;43816;52.054;-9.494;2022-11-27T00:30:42;6.57;;;3.10;;
57615;SDS011;43816;52.054;-9.494;2022-11-27T00:30:52;6.90;;;3.07;;
57615;SDS011;43816;52.054;-9.494;2022-11-27T00:31:22;7.18;;;3.00;;
57615;SDS011;43816;52.054;-9.494;2022-11-27T00:31:34;8.38;;;3.55;;
57615;SDS011;43816;52.054;-9.494;2022-11-27T00:31:45;8.48;;;3.60;;
57615;SDS011;43816;52.054;-9.494;2022-11-27T00:31:55;7.57;;;3.40;;
57615;SDS011;43816;52.054;-9.494;2022-11-27T00:32:05;8.67;;;3.53;;
57615;SDS011;43816;52.054;-9.494;2022-11-27T00:32:16;8.33;;;3.37;;
57615;SDS011;43816;52.054;-9.494;2022-11-27T00:32:26;7.40;;;3.03;;
57615;SDS011;43816;52.054;-9.494;2022-11-27T00:32:36;7.07;;;3.00;;
57615;SDS011;43816;52.054;-9.494;2022-11-27T00:32:46;7.77;;;3.23;;
57615;SDS011;43816;52.054;-9.494;2022-11-27T00:32:57;8.53;;;3.50;;
57615;SDS011;43816;52.054;-9.494;2022-11-27T00:33:07;8.70;;;3.50;;
57615;SDS011;43816;52.054;-9.494;2022-11-27T00:33:17;7.60;;;3.20;;
57615;SDS011;43816;52.054;-9.494;2022-11-27T00:33:28;6.67;;;3.10;;
57615;SDS011;43816;52.054;-9.494;2022-11-27T00:33:38;6.18;;;3.17;;
57615;SDS011;43816;52.054;-9.494;2022-11-27T00:33:48;6.67;;;3.20;;
57615;SDS011;43816;52.054;-9.494;2022-11-27T00:34:01;7.07;;;3.20;;
57615;SDS011;43816;52.054;-9.494;2022-11-27T00:34:12;8.25;;;3.25;;
57615;SDS011;43816;52.054;-9.494;2022-11-27T00:34:22;9.10;;;3.43;;
57615;SDS011;43816;52.054;-9.494;2022-11-27T00:34:33;9.07;;;3.70;;
57615;SDS011;43816;52.054;-9.494;2022-11-27T00:34:46;9.15;;;3.78;;
57615;SDS011;43816;52.054;-9.494;2022-11-27T00:34:56;8.93;;;3.60;;
57615;SDS011;43816;52.054;-9.494;2022-11-27T00:35:07;9.00;;;3.60;;
57615;SDS011;43816;52.054;-9.494;2022-11-27T00:35:17;8.43;;;3.53;;
57615;SDS011;43816;52.054;-9.494;2022-11-27T00:35:27;8.23;;;3.53;;
57615;SDS011;43816;52.054;-9.494;2022-11-27T00:35:38;8.37;;;3.67;;
57615;SDS011;43816;52.054;-9.494;2022-11-27T00:35:48;8.07;;;3.67;;
57615;SDS011;43816;52.054;-9.494;2022-11-27T00:36:02;8.37;;;3.53;;
57615;SDS011;43816;52.054;-9.494;2022-11-27T00:36:15;7.35;;;3.08;;
57615;SDS011;43816;52.054;-9.494;2022-11-27T00:36:27;6.50;;;2.87;;
57615;SDS011;43816;52.054;-9.494;2022-11-27T00:36:38;7.18;;;3.10;;
57615;SDS011;43816;52.054;-9.494;2022-11-27T00:36:48;7.72;;;3.20;;
57615;SDS011;43816;52.054;-9.494;2022-11-27T00:36:59;7.40;;;3.20;;
57615;SDS011;43816;52.054;-9.494;2022-11-27T00:37:09;6.85;;;2.97;;
57615;SDS011;43816;52.054;-9.494;2022-11-27T00:37:19;6.23;;;3.00;;
57615;SDS011;43816;52.054;-9.494;2022-11-27T00:37:30;6.47;;;3.10;;
57615;SDS011;43816;52.054;-9.494;2022-11-27T00:37:40;6.35;;;3.20;;
57615;SDS011;43816;52.054;-9.494;2022-11-27T00:37:50;6.03;;;3.13;;
57615;SDS011;43816;52.054;-9.494;2022-11-27T00:38:00;7.33;;;3.20;;
57615;SDS011;43816;52.054;-9.494;2022-11-27T00:38:11;8.47;;;3.30;;
57615;SDS011;43816;52.054;-9.494;2022-11-27T00:38:21;9.13;;;3.55;;
57615;SDS011;43816;52.054;-9.494;2022-11-27T00:38:31;7.77;;;3.40;;
57615;SDS011;43816;52.054;-9.494;2022-11-27T00:38:42;7.20;;;3.30;;
57615;SDS011;43816;52.054;-9.494;2022-11-27T00:38:53;6.63;;;3.00;;
57615;SDS011;43816;52.054;-9.494;2022-11-27T00:39:06;7.18;;;3.15;;
57615;SDS011;43816;52.054;-9.494;2022-11-27T00:39:16;7.30;;;3.20;;
57615;SDS011;43816;52.054;-9.494;2022-11-27T00:39:27;7.50;;;3.08;;
57615;SDS011;43816;52.054;-9.494;2022-11-27T00:39:37;7.57;;;3.00;;
57615;SDS011;43816;52.054;-9.494;2022-11-27T00:39:48;7.60;;;3.10;;
57615;SDS011;43816;52.054;-9.494;2022-11-27T00:39:58;7.43;;;3.30;;
57615;SDS011;43816;52.054;-9.494;2022-11-27T00:40:08;7.10;;;3.27;;
57615;SDS011;43816;52.054;-9.494;2022-11-27T00:40:19;6.97;;;3.10;;
57615;SDS011;43816;52.054;-9.494;2022-11-27T00:40:29;6.83;;;3.13;;
57615;SDS011;43816;52.054;-9.494;2022-11-27T00:40:40;7.32;;;3.20;;
57615;SDS011;43816;52.054;-9.494;2022-11-27T00:40:50;7.37;;;3.40;;
57615;SDS011;43816;52.054;-9.494;2022-11-27T00:41:04;7.83;;;3.60;;
57615;SDS011;43816;52.054;-9.494;2022-11-27T00:41:16;7.38;;;3.40;;
57615;SDS011;43816;52.054;-9.494;2022-11-27T00:41:29;7.78;;;3.15;;
57615;SDS011;43816;52.054;-9.494;2022-11-27T00:41:39;7.40;;;3.00;;
57615;SDS011;43816;52.054;-9.494;2022-11-27T00:41:50;8.13;;;3.30;;
57615;SDS011;43816;52.054;-9.494;2022-11-27T00:42:00;7.97;;;3.20;;
57615;SDS011;43816;52.054;-9.494;2022-11-27T00:42:10;9.15;;;3.42;;
57615;SDS011;43816;52.054;-9.494;2022-11-27T00:42:20;8.83;;;3.30;;
57615;SDS011;43816;52.054;-9.494;2022-11-27T00:42:31;8.43;;;3.43;;
57615;SDS011;43816;52.054;-9.494;2022-11-27T00:42:41;8.97;;;3.40;;
57615;SDS011;43816;52.054;-9.494;2022-11-27T00:42:51;8.45;;;3.38;;
57615;SDS011;43816;52.054;-9.494;2022-11-27T00:43:01;8.57;;;3.33;;
57615;SDS011;43816;52.054;-9.494;2022-11-27T00:43:12;7.27;;;3.40;;
57615;SDS011;43816;52.054;-9.494;2022-11-27T00:43:22;7.88;;;3.30;;
57615;SDS011;43816;52.054;-9.494;2022-11-27T00:43:35;7.22;;;3.00;;
57615;SDS011;43816;52.054;-9.494;2022-11-27T00:43:46;7.22;;;3.03;;
57615;SDS011;43816;52.054;-9.494;2022-11-27T00:43:57;6.88;;;3.10;;
57615;SDS011;43816;52.054;-9.494;2022-11-27T00:44:08;8.03;;;3.33;;
57615;SDS011;43816;52.054;-9.494;2022-11-27T00:44:18;7.90;;;3.20;;
57615;SDS011;43816;52.054;-9.494;2022-11-27T00:44:29;8.50;;;3.30;;
57615;SDS011;43816;52.054;-9.494;2022-11-27T00:44:39;7.30;;;3.10;;
57615;SDS011;43816;52.054;-9.494;2022-11-27T00:44:49;7.73;;;3.10;;
57615;SDS011;43816;52.054;-9.494;2022-11-27T00:45:00;7.23;;;3.20;;
57615;SDS011;43816;52.054;-9.494;2022-11-27T00:45:10;7.63;;;3.30;;
57615;SDS011;43816;52.054;-9.494;2022-11-27T00:45:20;7.80;;;3.47;;
57615;SDS011;43816;52.054;-9.494;2022-11-27T00:45:38;7.83;;;3.37;;
57615;SDS011;43816;52.054;-9.494;2022-11-27T00:45:48;7.28;;;3.05;;
57615;SDS011;43816;52.054;-9.494;2022-11-27T00:45:59;7.95;;;3.03;;
57615;SDS011;43816;52.054;-9.494;2022-11-27T00:46:10;7.60;;;2.90;;
57615;SDS011;43816;52.054;-9.494;2022-11-27T00:46:27;7.60;;;3.03;;
57615;SDS011;43816;52.054;-9.494;2022-11-27T00:46:39;7.30;;;3.00;;
57615;SDS011;43816;52.054;-9.494;2022-11-27T00:46:49;7.73;;;3.20;;
57615;SDS011;43816;52.054;-9.494;2022-11-27T00:47:00;6.87;;;3.20;;
57615;SDS011;43816;52.054;-9.494;2022-11-27T00:47:10;7.00;;;3.37;;
57615;SDS011;43816;52.054;-9.494;2022-11-27T00:47:20;8.03;;;3.30;;
57615;SDS011;43816;52.054;-9.494;2022-11-27T00:47:30;8.18;;;3.25;;
57615;SDS011;43816;52.054;-9.494;2022-11-27T00:47:41;8.10;;;3.23;;
57615;SDS011;43816;52.054;-9.494;2022-11-27T00:47:51;6.97;;;3.10;;
57615;SDS011;43816;52.054;-9.494;2022-11-27T00:48:01;6.25;;;3.00;;
57615;SDS011;43816;52.054;-9.494;2022-11-27T00:48:12;6.07;;;3.00;;
57615;SDS011;43816;52.054;-9.494;2022-11-27T00:48:22;6.00;;;2.87;;
57615;SDS011;43816;52.054;-9.494;2022-11-27T00:48:32;6.50;;;3.00;;
57615;SDS011;43816;52.054;-9.494;2022-11-27T00:48:46;7.25;;;3.05;;
57615;SDS011;43816;52.054;-9.494;2022-11-27T00:48:57;7.38;;;3.10;;
57615;SDS011;43816;52.054;-9.494;2022-11-27T00:49:09;6.43;;;2.92;;
57615;SDS011;43816;52.054;-9.494;2022-11-27T00:49:21;7.57;;;3.05;;
57615;SDS011;43816;52.054;-9.494;2022-11-27T00:49:31;8.30;;;3.43;;
57615;SDS011;43816;52.054;-9.494;2022-11-27T00:49:42;8.37;;;3.40;;
57615;SDS011;43816;52.054;-9.494;2022-11-27T00:49:52;7.90;;;3.35;;
57615;SDS011;43816;52.054;-9.494;2022-11-27T00:50:02;7.37;;;3.13;;
57615;SDS011;43816;52.054;-9.494;2022-11-27T00:50:15;7.72;;;3.17;;
57615;SDS011;43816;52.054;-9.494;2022-11-27T00:50:25;7.38;;;3.20;;
57615;SDS011;43816;52.054;-9.494;2022-11-27T00:50:36;7.65;;;3.17;;
57615;SDS011;43816;52.054;-9.494;2022-11-27T00:50:46;7.07;;;3.20;;
57615;SDS011;43816;52.054;-9.494;2022-11-27T00:51:00;6.40;;;3.10;;
57615;SDS011;43816;52.054;-9.494;2022-11-27T00:51:16;7.18;;;3.20;;
57615;SDS011;43816;52.054;-9.494;2022-11-27T00:51:28;7.07;;;3.05;;
57615;SDS011;43816;52.054;-9.494;2022-11-27T00:51:39;7.15;;;2.95;;
57615;SDS011;43816;52.054;-9.494;2022-11-27T00:51:50;7.43;;;3.17;;
57615;SDS011;43816;52.054;-9.494;2022-11-27T00:52:00;7.63;;;3.10;;
57615;SDS011;43816;52.054;-9.494;2022-11-27T00:52:10;7.10;;;3.00;;
57615;SDS011;43816;52.054;-9.494;2022-11-27T00:52:26;7.97;;;3.10;;
57615;SDS011;43816;52.054;-9.494;2022-11-27T00:52:36;7.88;;;3.20;;
57615;SDS011;43816;52.054;-9.494;2022-11-27T00:52:47;7.50;;;3.17;;
57615;SDS011;43816;52.054;-9.494;2022-11-27T00:52:57;7.43;;;3.27;;
57615;SDS011;43816;52.054;-9.494;2022-11-27T00:53:08;7.75;;;3.28;;
57615;SDS011;43816;52.054;-9.494;2022-11-27T00:53:18;7.70;;;3.23;;
57615;SDS011;43816;52.054;-9.494;2022-11-27T00:53:28;6.45;;;2.88;;
57615;SDS011;43816;52.054;-9.494;2022-11-27T00:53:39;6.05;;;2.80;;
57615;SDS011;43816;52.054;-9.494;2022-11-27T00:53:50;6.23;;;2.93;;
57615;SDS011;43816;52.054;-9.494;2022-11-27T00:54:01;6.63;;;3.08;;
57615;SDS011;43816;52.054;-9.494;2022-11-27T00:54:15;6.57;;;3.03;;
57615;SDS011;43816;52.054;-9.494;2022-11-27T00:54:25;6.07;;;2.75;;
57615;SDS011;43816;52.054;-9.494;2022-11-27T00:54:36;6.20;;;2.80;;
57615;SDS011;43816;52.054;-9.494;2022-11-27T00:54:46;6.30;;;2.90;;
57615;SDS011;43816;52.054;-9.494;2022-11-27T00:54:56;6.60;;;2.95;;
57615;SDS011;43816;52.054;-9.494;2022-11-27T00:55:07;6.80;;;3.07;;
57615;SDS011;43816;52.054;-9.494;2022-11-27T00:55:20;6.95;;;3.05;;
57615;SDS011;43816;52.054;-9.494;2022-11-27T00:55:30;7.13;;;3.20;;
57615;SDS011;43816;52.054;-9.494;2022-11-27T00:55:41;7.40;;;3.15;;
57615;SDS011;43816;52.054;-9.494;2022-11-27T00:55:51;7.33;;;3.00;;
57615;SDS011;43816;52.054;-9.494;2022-11-27T00:56:02;7.20;;;2.90;;
57615;SDS011;43816;52.054;-9.494;2022-11-27T00:56:32;6.93;;;3.05;;
57615;SDS011;43816;52.054;-9.494;2022-11-27T00:56:44;6.30;;;3.15;;
57615;SDS011;43816;52.054;-9.494;2022-11-27T00:56:54;6.23;;;3.17;;
57615;SDS011;43816;52.054;-9.494;2022-11-27T00:57:05;6.47;;;3.03;;
57615;SDS011;43816;52.054;-9.494;2022-11-27T00:57:15;7.50;;;3.30;;
57615;SDS011;43816;52.054;-9.494;2022-11-27T00:57:25;7.37;;;3.27;;
57615;SDS011;43816;52.054;-9.494;2022-11-27T00:57:36;7.65;;;3.15;;
57615;SDS011;43816;52.054;-9.494;2022-11-27T00:57:46;7.93;;;3.00;;
57615;SDS011;43816;52.054;-9.494;2022-11-27T00:57:56;8.20;;;3.00;;
57615;SDS011;43816;52.054;-9.494;2022-11-27T00:58:06;6.90;;;2.95;;
57615;SDS011;43816;52.054;-9.494;2022-11-27T00:58:17;6.70;;;3.00;;
57615;SDS011;43816;52.054;-9.494;2022-11-27T00:58:27;6.47;;;3.00;;
57615;SDS011;43816;52.054;-9.494;2022-11-27T00:58:38;6.93;;;3.10;;
57615;SDS011;43816;52.054;-9.494;2022-11-27T00:58:48;7.27;;;3.17;;
57615;SDS011;43816;52.054;-9.494;2022-11-27T00:58:59;7.43;;;3.03;;
57615;SDS011;43816;52.054;-9.494;2022-11-27T00:59:10;7.13;;;3.03;;
57615;SDS011;43816;52.054;-9.494;2022-11-27T00:59:20;6.63;;;2.90;;
57615;SDS011;43816;52.054;-9.494;2022-11-27T00:59:31;7.97;;;3.20;;
57615;SDS011;43816;52.054;-9.494;2022-11-27T00:59:41;8.67;;;3.23;;
57615;SDS011;43816;52.054;-9.494;2022-11-27T00:59:51;8.30;;;3.05;;
57615;SDS011;43816;52.054;-9.494;2022-11-27T01:00:02;6.97;;;2.90;;
57615;SDS011;43816;52.054;-9.494;2022-11-27T01:00:14;6.10;;;2.70;;
57615;SDS011;43816;52.054;-9.494;2022-11-27T01:00:25;5.65;;;2.80;;
57615;SDS011;43816;52.054;-9.494;2022-11-27T01:00:35;5.75;;;2.97;;
57615;SDS011;43816;52.054;-9.494;2022-11-27T01:00:45;5.67;;;3.10;;
57615;SDS011;43816;52.054;-9.494;2022-11-27T01:01:03;6.75;;;3.10;;
57615;SDS011;43816;52.054;-9.494;2022-11-27T01:01:16;7.47;;;3.10;;
57615;SDS011;43816;52.054;-9.494;2022-11-27T01:01:29;7.15;;;3.13;;
57615;SDS011;43816;52.054;-9.494;2022-11-27T01:01:42;7.28;;;3.10;;
57615;SDS011;43816;52.054;-9.494;2022-11-27T01:01:52;6.40;;;2.95;;
57615;SDS011;43816;52.054;-9.494;2022-11-27T01:02:03;6.10;;;2.90;;
57615;SDS011;43816;52.054;-9.494;2022-11-27T01:02:13;6.13;;;3.00;;
57615;SDS011;43816;52.054;-9.494;2022-11-27T01:02:26;6.57;;;2.90;;
57615;SDS011;43816;52.054;-9.494;2022-11-27T01:02:36;7.57;;;2.95;;
57615;SDS011;43816;52.054;-9.494;2022-11-27T01:02:47;7.45;;;3.00;;
57615;SDS011;43816;52.054;-9.494;2022-11-27T01:02:57;6.93;;;3.17;;
57615;SDS011;43816;52.054;-9.494;2022-11-27T01:03:07;6.27;;;3.07;;
57615;SDS011;43816;52.054;-9.494;2022-11-27T01:03:18;6.43;;;3.00;;
57615;SDS011;43816;52.054;-9.494;2022-11-27T01:03:28;6.70;;;2.80;;
57615;SDS011;43816;52.054;-9.494;2022-11-27T01:03:39;6.80;;;2.90;;
57615;SDS011;43816;52.054;-9.494;2022-11-27T01:03:49;6.43;;;2.93;;
57615;SDS011;43816;52.054;-9.494;2022-11-27T01:04:00;6.65;;;3.10;;
57615;SDS011;43816;52.054;-9.494;2022-11-27T01:04:13;7.00;;;3.20;;
57615;SDS011;43816;52.054;-9.494;2022-11-27T01:04:27;6.50;;;3.28;;
57615;SDS011;43816;52.054;-9.494;2022-11-27T01:04:37;5.60;;;3.10;;
57615;SDS011;43816;52.054;-9.494;2022-11-27T01:04:47;5.90;;;3.10;;
57615;SDS011;43816;52.054;-9.494;2022-11-27T01:04:58;5.40;;;2.90;;
57615;SDS011;43816;52.054;-9.494;2022-11-27T01:05:08;6.03;;;3.00;;
57615;SDS011;43816;52.054;-9.494;2022-11-27T01:05:18;5.97;;;2.95;;
57615;SDS011;43816;52.054;-9.494;2022-11-27T01:05:29;6.80;;;2.93;;
57615;SDS011;43816;52.054;-9.494;2022-11-27T01:05:39;6.67;;;2.83;;
57615;SDS011;43816;52.054;-9.494;2022-11-27T01:05:49;6.57;;;2.90;;
57615;SDS011;43816;52.054;-9.494;2022-11-27T01:06:04;6.10;;;2.83;;
57615;SDS011;43816;52.054;-9.494;2022-11-27T01:06:16;5.95;;;2.70;;